Telluride, CO

2:15 AM MST on January 30, 2015 (GMT -0700)
Durango-La Plata County | Change Station
CLOSE
Current Station
Airport
Location: Durango,
Elevation: 6683 ft
Nearby Weather Stations
Active Advisory: Winter Weather Advisory

Elev 6683 ft 37.14 °N, 107.76 °W | Updated 22 minutes ago

Snow
Snow
35 °F
Feels Like 31 °F
N
5
Wind Variable Wind from ENE

Today
High -- | Low -- °F
--% Chance of Precip.
Yesterday
High -- | Low -- °F
Precip. -- in
7:17 AM 5:32 PM
Waxing Gibbous, 81% visible
Pressure 30.29 in
Visibility 10.0 miles
Clouds Mostly Cloudy 5500 ft
Overcast 9000 ft
Windchill 31 °F
Dew Point 33 °F
Humidity 92%
Rainfall 0.00 in
Snow Depth Not available.
UV 0 out of 12
Pollen .10 out of 12
Air Quality Not available.
Flu Activity Not available.
METAR KDRO 300853Z AUTO 07004KT 10SM BKN055 OVC090 02/01 A3031 RMK AO2 SLP257 60000 T00170006 56012

More Conditions Fewer Conditions

Pressure 30.29 in
Visibility 10.0 miles
Clouds Mostly Cloudy 5500 ft
Overcast 9000 ft
Windchill 31 °F
Dew Point 33 °F
Humidity 92%
Rainfall 0.00 in
Snow Depth Not available.
UV 0 out of 12
Pollen .10 out of 12
Air Quality Not available.
Flu Activity Not available.
METAR KDRO 300853Z AUTO 07004KT 10SM BKN055 OVC090 02/01 A3031 RMK AO2 SLP257 60000 T00170006 56012

More Conditions Fewer Conditions

10-Day Weather Forecast

Almanac

Astronomy

Jan. 30, 2015 Rise Set
Actual Time
Civil Twilight
Nautical Twilight
Astronomical Twilight
Moon
Length of Visible Light
Length of Day
Tomorrow will be .
, % of the Moon is Illuminated

Today's Extremes

State Highs State Lows

Community

WunderPhotos

Upload Photos

1,791,736 photos uploaded!

WunderBlogs® & News

Nearby

Air Quality

  Air Quality AQ Index Pollutant
Not available.

Snow Depth

Station Depth Elevation

Earthquake Activity

City Distance Mag. Time & Date
Minimum magnitude displayed is 2.5.

Coastal Water Temperatures

Place Temperature

Nearby Weather Stations